Flight Track Log - Related Links

Times and Time Zones

All times are in EDT time to prevent confusion due to time zone crossing. See the AWI3688 flight status page for this flight to view local times or setup timezone preferences in your user account.

Time Position Orientation Groundspeed Altitude Reporting Facility
EDT Latitude Longitude Course Direction KTS MPH feet Rate Location/Type
Tue 02:20:29 PM 42.7297 -73.8081 223° Southwest 159 183 1,200  Level Boston Center
Tue 02:21:41 PM 42.7083 -73.8697 245° Southwest 210 242 4,000 2,719 Climbing Boston Center
Tue 02:22:00 PM 42.7334 -74.2584 270° West  Level FlightAware Approximate
Tue 02:22:48 PM 42.7489 -73.9469 306° West 235 270 7,500  Level Boston Center
Tue 02:23:00 PM 42.6766 -74.3785 220° Southwest  Level FlightAware Approximate
Tue 02:23:38 PM 42.7625 -74.0125 286° West 230 265 9,500  Level Boston Center
Tue 02:24:00 PM 42.5901 -74.4758 220° Southwest  Level FlightAware Approximate
Tue 02:24:38 PM 42.7550 -74.1111 264° West 245 282 10,600  Level Boston Center
Tue 02:25:00 PM 42.5216 -74.5605 223° Southwest  Level FlightAware Approximate
Tue 02:25:38 PM 42.7511 -74.2242 267° West 277 319 12,400  Level Boston Center
Tue 02:26:38 PM 42.7472 -74.3372 267° West 303 349 14,700 2,250 Climbing Boston Center
Tue 02:27:38 PM 42.7306 -74.4525 259° West 313 360 16,900 1,700 Climbing Boston Center
Tue 02:28:38 PM 42.6797 -74.5017 215° Southwest 296 341 18,100 1,050 Climbing Boston Center
Tue 02:29:38 PM 42.5928 -74.5808 214° Southwest 314 361 19,000 450 Climbing Boston Center
Tue 02:30:38 PM 42.4972 -74.6675 214° Southwest 352 405 19,000  Level Boston Center
Tue 02:31:38 PM 42.4189 -74.7378 214° Southwest 352 405 19,000  Level Boston Center
Tue 02:33:53 PM 42.2558 -74.8867 214° Southwest 333 383 19,000  Level New York Center
Tue 02:34:53 PM 42.1783 -74.9572 214° Southwest 338 389 19,000  Level New York Center
Tue 02:35:54 PM 42.0928 -75.0272 211° Southwest 338 389 19,000  Level New York Center
Tue 02:36:54 PM 42.0175 -75.0950 214° Southwest 333 383 19,000  Level New York Center
Tue 02:37:52 PM 41.9403 -75.1569 211° Southwest 338 389 19,000 -50 Level New York Center
Tue 02:38:53 PM 41.8628 -75.2214 212° Southwest 338 389 18,900 -590 Descending New York Center
Tue 02:39:54 PM 41.7942 -75.2753 210° Southwest 333 383 17,800 -1,240 Descending New York Center
Tue 02:40:54 PM 41.7189 -75.3367 211° Southwest 333 383 16,400 -1,525 Descending New York Center
Tue 02:41:52 PM 41.6394 -75.4008 211° Southwest 321 369 14,800 -1,462 Descending New York Center
Tue 02:42:53 PM 41.5664 -75.4594 211° Southwest 316 364 13,500 -1,350 Descending New York Center
Tue 02:43:52 PM 41.5019 -75.5103 207° Southwest 310 357 12,100 -750 Descending New York Center
Tue 02:44:00 PM 41.4829 -75.5163 207° Southwest  Level FlightAware Approximate
Tue 02:44:53 PM 41.4331 -75.5664 211° Southwest 305 351 12,000  Level New York Center
Tue 02:45:53 PM 41.3556 -75.6272 211° Southwest 305 351 12,000 -250 Level New York Center
Tue 02:46:53 PM 41.2889 -75.6775 210° Southwest 305 351 11,500 -893 Descending New York Center
Tue 02:47:54 PM 41.2133 -75.6886 186° South 286 329 10,200 -756 Descending New York Center
Tue 02:48:52 PM 41.1364 -75.6886 180° South 280 322 10,000 -102 Descending New York Center
Tue 02:49:52 PM 41.0656 -75.6889 180° South 275 316 10,000  Level New York Center
Tue 02:50:54 PM 40.9842 -75.6886 180° South 275 316 10,000  Level New York Center
Tue 02:51:54 PM 40.9072 -75.6883 180° South 275 316 10,000  Level New York Center
Tue 02:52:52 PM 40.8406 -75.6864 179° South 275 316 10,000  Level New York Center
Tue 02:53:52 PM 40.7714 -75.6431 155° Southeast 270 311 10,000  Level New York Center
Tue 02:54:53 PM 40.6944 -75.5911 153° Southeast 276 318 10,000  Level New York Center
Tue 02:55:54 PM 40.6233 -75.5450 154° Southeast 282 325 10,000  Level New York Center
Tue 02:56:51 PM 40.5564 -75.5019 154° Southeast 282 325 10,000 -712 Level New York Center
Tue 02:57:52 PM 40.4975 -75.4625 153° Southeast 252 290 8,600 -1,339 Descending New York Center
Tue 02:58:52 PM 40.4406 -75.4286 156° South 238 274 7,300 -1,240 Descending New York Center
Tue 02:59:53 PM 40.3797 -75.4356 185° South 217 250 6,100 -1,041 Descending New York Center
Tue 03:00:53 PM 40.3292 -75.4483 191° South 217 250 5,200 -545 Descending New York Center
Tue 03:01:54 PM 40.2800 -75.4314 165° South 200 230 5,000 -102 Descending New York Center
Tue 03:02:51 PM 40.2267 -75.4061 160° South 189 217 5,000 -508 Level New York Center
Tue 03:03:52 PM 40.1797 -75.3839 160° South 179 206 4,000 -488 Descending New York Center
Tue 03:04:54 PM 40.1344 -75.3647 162° South 173 199 4,000 -300 Level New York Center
Tue 03:05:52 PM 40.0897 -75.3400 157° South 173 199 3,400 -504 Descending New York Center
Tue 03:06:53 PM 40.0447 -75.3181 160° South 173 199 3,000 -486 Descending New York Center
Tue 03:07:43 PM 40.0000 -75.3000 163° South 180 207 2,500 -600 Descending Philadelphia TRACON

Login

Don't have an account? Register now (free) for customized features, flight alerts, and more!